This is the latest recevied weather packets stored in our database for station/object C31FR-13. If no packets are shown the sender has not sent any weather packets the latest 10 day(s).
| Time | Temp. | Humidity | Pressure | Rain* | Wind** | Luminosity | Snow |
|---|---|---|---|---|---|---|---|
| 1777234863 | 13.89° C | 88% | 1022.3 hPa | - | - | - | - |
| 1777234263 | 14.44° C | 88% | 1022.1 hPa | - | - | - | - |
| 1777228263 | 15.56° C | 94% | 1021.1 hPa | - | - | - | - |
| 1777224964 | 15° C | 86% | 1021.3 hPa | - | - | - | - |
| 1777224662 | 15° C | 86% | 1021.3 hPa | - | - | - | - |
| 1777221363 | 16.67° C | 91% | 1020.6 hPa | - | - | - | - |
| 1777220162 | 16.67° C | 92% | 1020.2 hPa | - | - | - | - |
| 1777219863 | 16.67° C | 87% | 1020.1 hPa | - | - | - | - |
| 1777219563 | 17.22° C | 80% | 1020 hPa | - | - | - | - |
| 1777218963 | 17.22° C | 67% | 1019.7 hPa | - | - | - | - |
| 1777217463 | 18.33° C | 60% | 1019 hPa | - | - | - | - |
| 1777217163 | 18.89° C | 58% | 1018.8 hPa | - | - | - | - |
| 1777216862 | 18.89° C | 57% | 1018.7 hPa | - | - | - | - |
| 1777216263 | 19.44° C | 56% | 1018.8 hPa | - | - | - | - |
| 1777215364 | 18.89° C | 53% | 1018.6 hPa | - | - | - | - |
| 1777215063 | 18.89° C | 52% | 1018.6 hPa | - | - | - | - |
| 1777214764 | 18.89° C | 51% | 1018.6 hPa | - | - | - | - |
| 1777212663 | 20° C | 48% | 1018.4 hPa | - | - | - | - |
| 1777211163 | 19.44° C | 54% | 1018.6 hPa | - | - | - | - |
| 1777210563 | 19.44° C | 52% | 1018.9 hPa | - | - | - | - |
| 1777210262 | 19.44° C | 51% | 1018.8 hPa | - | - | - | - |
| 1777209963 | 19.44° C | 48% | 1019 hPa | - | - | - | - |
| 1777209363 | 19.44° C | 49% | 1018.9 hPa | - | - | - | - |
| 1777209063 | 19.44° C | 49% | 1018.9 hPa | - | - | - | - |
| 1777208763 | 19.44° C | 51% | 1018.9 hPa | - | - | - | - |
* Rain since midnight (hover to see other rain measurements)
** Current wind speed in m/s (hover to see current wind gust speed)